sensor_id;sensor_type;location;lat;lon;timestamp;pressure;altitude;pressure_sealevel;temperature;humidity
59272;BME280;45043;51.068;7.026;2022-07-29T00:02:55;100357.59;;;16.91;38.88
59272;BME280;45043;51.068;7.026;2022-07-29T00:05:56;100348.13;;;17.01;38.86
59272;BME280;45043;51.068;7.026;2022-07-29T00:08:56;100351.53;;;17.13;38.38
59272;BME280;45043;51.068;7.026;2022-07-29T00:11:59;100349.31;;;17.21;38.15
59272;BME280;45043;51.068;7.026;2022-07-29T00:15:01;100348.47;;;17.21;38.40
59272;BME280;45043;51.068;7.026;2022-07-29T00:18:01;100345.25;;;17.19;38.22
59272;BME280;45043;51.068;7.026;2022-07-29T00:21:02;100339.38;;;17.22;38.40
59272;BME280;45043;51.068;7.026;2022-07-29T00:24:03;100338.56;;;17.21;38.46
59272;BME280;45043;51.068;7.026;2022-07-29T00:27:03;100332.38;;;17.21;38.11
59272;BME280;45043;51.068;7.026;2022-07-29T00:30:05;100327.50;;;17.18;38.06
59272;BME280;45043;51.068;7.026;2022-07-29T00:33:06;100312.50;;;17.05;38.22
59272;BME280;45043;51.068;7.026;2022-07-29T00:36:09;100316.97;;;16.99;38.11
59272;BME280;45043;51.068;7.026;2022-07-29T00:39:10;100307.78;;;16.95;38.57
59272;BME280;45043;51.068;7.026;2022-07-29T00:42:10;100306.31;;;17.05;38.21
59272;BME280;45043;51.068;7.026;2022-07-29T00:45:11;100306.91;;;17.07;38.83
59272;BME280;45043;51.068;7.026;2022-07-29T00:48:13;100296.38;;;17.05;38.33
59272;BME280;45043;51.068;7.026;2022-07-29T00:51:13;100297.19;;;17.06;38.55
59272;BME280;45043;51.068;7.026;2022-07-29T00:54:14;100300.00;;;17.11;38.25
59272;BME280;45043;51.068;7.026;2022-07-29T00:57:14;100303.22;;;17.13;38.70
59272;BME280;45043;51.068;7.026;2022-07-29T01:00:18;100298.53;;;17.20;38.30
59272;BME280;45043;51.068;7.026;2022-07-29T01:03:19;100292.47;;;17.13;38.55
59272;BME280;45043;51.068;7.026;2022-07-29T01:06:20;100287.81;;;17.20;37.91
59272;BME280;45043;51.068;7.026;2022-07-29T01:09:21;100281.63;;;17.19;37.83
59272;BME280;45043;51.068;7.026;2022-07-29T01:12:25;100280.81;;;17.19;38.23
59272;BME280;45043;51.068;7.026;2022-07-29T01:15:25;100275.94;;;17.16;38.38
59272;BME280;45043;51.068;7.026;2022-07-29T01:18:39;100281.28;;;17.16;38.34
59272;BME280;45043;51.068;7.026;2022-07-29T01:21:51;100269.41;;;17.12;38.12
59272;BME280;45043;51.068;7.026;2022-07-29T01:25:10;100260.75;;;17.10;37.86
59272;BME280;45043;51.068;7.026;2022-07-29T01:31:52;100283.56;;;17.07;38.43
59272;BME280;45043;51.068;7.026;2022-07-29T01:38:20;100272.09;;;17.12;38.60
59272;BME280;45043;51.068;7.026;2022-07-29T01:41:22;100260.75;;;17.10;38.37
59272;BME280;45043;51.068;7.026;2022-07-29T01:44:31;100255.41;;;17.10;38.46
59272;BME280;45043;51.068;7.026;2022-07-29T01:47:38;100259.94;;;17.09;38.69
59272;BME280;45043;51.068;7.026;2022-07-29T01:50:47;100252.97;;;17.08;38.27
59272;BME280;45043;51.068;7.026;2022-07-29T01:53:55;100248.88;;;17.06;38.74
59272;BME280;45043;51.068;7.026;2022-07-29T01:56:59;100248.88;;;17.06;38.79
59272;BME280;45043;51.068;7.026;2022-07-29T02:00:00;100240.84;;;17.06;38.39
59272;BME280;45043;51.068;7.026;2022-07-29T02:03:05;100244.09;;;17.08;38.19
59272;BME280;45043;51.068;7.026;2022-07-29T02:06:08;100241.91;;;17.05;38.36
59272;BME280;45043;51.068;7.026;2022-07-29T02:09:12;100244.59;;;17.05;38.31
59272;BME280;45043;51.068;7.026;2022-07-29T02:12:16;100247.28;;;17.05;38.08
59272;BME280;45043;51.068;7.026;2022-07-29T02:15:18;100248.88;;;17.06;38.75
59272;BME280;45043;51.068;7.026;2022-07-29T02:18:20;100252.16;;;17.08;38.52
59272;BME280;45043;51.068;7.026;2022-07-29T02:21:24;100249.16;;;17.04;39.16
59272;BME280;45043;51.068;7.026;2022-07-29T02:24:25;100255.06;;;17.06;39.16
59272;BME280;45043;51.068;7.026;2022-07-29T02:27:28;100252.63;;;17.05;38.74
59272;BME280;45043;51.068;7.026;2022-07-29T02:30:30;100244.66;;;17.10;39.69
59272;BME280;45043;51.068;7.026;2022-07-29T02:33:32;100252.97;;;17.08;40.00
59272;BME280;45043;51.068;7.026;2022-07-29T02:36:34;100242.97;;;17.04;39.72
59272;BME280;45043;51.068;7.026;2022-07-29T02:39:36;100244.59;;;17.05;40.24
59272;BME280;45043;51.068;7.026;2022-07-29T02:42:38;100253.13;;;17.02;39.82
59272;BME280;45043;51.068;7.026;2022-07-29T02:45:41;100262.97;;;16.96;39.88
59272;BME280;45043;51.068;7.026;2022-07-29T02:48:56;100260.94;;;16.86;39.77
59272;BME280;45043;51.068;7.026;2022-07-29T02:52:01;100257.69;;;16.84;39.08
59272;BME280;45043;51.068;7.026;2022-07-29T02:55:13;100247.34;;;16.76;39.17
59272;BME280;45043;51.068;7.026;2022-07-29T03:01:20;100254.44;;;16.82;39.01
59272;BME280;45043;51.068;7.026;2022-07-29T03:04:23;100264.03;;;16.78;39.20
59272;BME280;45043;51.068;7.026;2022-07-29T03:07:25;100284.09;;;16.75;39.33
59272;BME280;45043;51.068;7.026;2022-07-29T03:10:26;100284.34;;;16.74;40.37
59272;BME280;45043;51.068;7.026;2022-07-29T03:13:29;100292.28;;;16.69;40.72
59272;BME280;45043;51.068;7.026;2022-07-29T03:16:30;100289.44;;;16.59;41.27
59272;BME280;45043;51.068;7.026;2022-07-29T03:19:31;100281.81;;;16.39;41.56
59272;BME280;45043;51.068;7.026;2022-07-29T03:22:32;100292.00;;;16.25;41.79
59272;BME280;45043;51.068;7.026;2022-07-29T03:25:33;100300.31;;;16.12;42.03
59272;BME280;45043;51.068;7.026;2022-07-29T03:28:34;100315.94;;;16.03;42.09
59272;BME280;45043;51.068;7.026;2022-07-29T03:31:34;100326.34;;;15.88;42.41
59272;BME280;45043;51.068;7.026;2022-07-29T03:34:36;100314.34;;;15.78;42.67
59272;BME280;45043;51.068;7.026;2022-07-29T03:37:37;100314.00;;;15.75;42.83
59272;BME280;45043;51.068;7.026;2022-07-29T03:40:58;100311.22;;;15.70;42.86
59272;BME280;45043;51.068;7.026;2022-07-29T03:44:02;100316.00;;;15.56;43.00
59272;BME280;45043;51.068;7.026;2022-07-29T03:47:04;100315.50;;;15.47;43.28
59272;BME280;45043;51.068;7.026;2022-07-29T03:50:08;100319.91;;;15.42;43.52
59272;BME280;45043;51.068;7.026;2022-07-29T03:53:11;100307.13;;;15.32;43.63
59272;BME280;45043;51.068;7.026;2022-07-29T03:56:12;100320.38;;;15.27;43.39
59272;BME280;45043;51.068;7.026;2022-07-29T03:59:17;100329.91;;;15.23;43.34
59272;BME280;45043;51.068;7.026;2022-07-29T04:02:20;100305.13;;;15.16;43.55
59272;BME280;45043;51.068;7.026;2022-07-29T04:05:21;100310.91;;;15.01;43.39
59272;BME280;45043;51.068;7.026;2022-07-29T04:08:21;100314.41;;;15.01;43.89
59272;BME280;45043;51.068;7.026;2022-07-29T04:11:22;100333.22;;;14.95;44.02
59272;BME280;45043;51.068;7.026;2022-07-29T04:14:22;100312.50;;;14.90;44.19
59272;BME280;45043;51.068;7.026;2022-07-29T04:17:23;100328.09;;;14.81;44.21
59272;BME280;45043;51.068;7.026;2022-07-29T04:20:23;100320.41;;;14.73;44.25
59272;BME280;45043;51.068;7.026;2022-07-29T04:23:23;100327.59;;;14.73;44.65
59272;BME280;45043;51.068;7.026;2022-07-29T04:26:24;100323.28;;;14.72;44.20
59272;BME280;45043;51.068;7.026;2022-07-29T04:29:24;100309.78;;;14.67;44.30
59272;BME280;45043;51.068;7.026;2022-07-29T04:32:25;100318.25;;;14.64;44.59
59272;BME280;45043;51.068;7.026;2022-07-29T04:35:26;100333.25;;;14.65;44.46
59272;BME280;45043;51.068;7.026;2022-07-29T04:38:26;100316.19;;;14.66;44.38
59272;BME280;45043;51.068;7.026;2022-07-29T04:41:27;100318.66;;;14.61;44.86
59272;BME280;45043;51.068;7.026;2022-07-29T04:44:28;100306.53;;;14.46;44.68
59272;BME280;45043;51.068;7.026;2022-07-29T04:47:28;100310.63;;;14.49;44.83
59272;BME280;45043;51.068;7.026;2022-07-29T04:50:29;100313.88;;;14.51;44.82
59272;BME280;45043;51.068;7.026;2022-07-29T04:53:30;100317.59;;;14.50;44.71
59272;BME280;45043;51.068;7.026;2022-07-29T04:56:30;100314.91;;;14.50;44.58
59272;BME280;45043;51.068;7.026;2022-07-29T04:59:31;100300.44;;;14.39;44.91
59272;BME280;45043;51.068;7.026;2022-07-29T05:02:31;100311.13;;;14.39;44.75
59272;BME280;45043;51.068;7.026;2022-07-29T05:05:32;100311.66;;;14.48;44.81
59272;BME280;45043;51.068;7.026;2022-07-29T05:08:32;100313.72;;;14.46;44.45
59272;BME280;45043;51.068;7.026;2022-07-29T05:11:33;100318.25;;;14.45;44.87
59272;BME280;45043;51.068;7.026;2022-07-29T05:14:33;100322.56;;;14.46;44.73
59272;BME280;45043;51.068;7.026;2022-07-29T05:17:34;100328.06;;;14.51;44.66
59272;BME280;45043;51.068;7.026;2022-07-29T05:20:35;100337.03;;;14.57;44.60
59272;BME280;45043;51.068;7.026;2022-07-29T05:23:35;100322.63;;;14.58;44.72
59272;BME280;45043;51.068;7.026;2022-07-29T05:26:35;100324.78;;;14.68;44.44
59272;BME280;45043;51.068;7.026;2022-07-29T05:29:39;100336.81;;;14.77;44.33
59272;BME280;45043;51.068;7.026;2022-07-29T05:32:39;100335.22;;;14.88;44.11
59272;BME280;45043;51.068;7.026;2022-07-29T05:35:43;100342.09;;;14.95;43.75
59272;BME280;45043;51.068;7.026;2022-07-29T05:38:43;100333.59;;;14.98;44.05
59272;BME280;45043;51.068;7.026;2022-07-29T05:41:43;100339.06;;;15.03;44.42
59272;BME280;45043;51.068;7.026;2022-07-29T05:44:44;100330.44;;;15.01;44.18
59272;BME280;45043;51.068;7.026;2022-07-29T05:47:44;100335.72;;;15.08;43.90
59272;BME280;45043;51.068;7.026;2022-07-29T05:50:48;100341.66;;;15.10;43.87
59272;BME280;45043;51.068;7.026;2022-07-29T05:53:49;100340.25;;;15.08;44.34
59272;BME280;45043;51.068;7.026;2022-07-29T05:56:50;100334.91;;;15.08;43.51
59272;BME280;45043;51.068;7.026;2022-07-29T06:08:45;100374.63;;;15.46;43.83
59272;BME280;45043;51.068;7.026;2022-07-29T06:11:48;100384.34;;;15.70;43.16
59272;BME280;45043;51.068;7.026;2022-07-29T06:14:51;100384.56;;;15.92;42.69
59272;BME280;45043;51.068;7.026;2022-07-29T06:17:54;100373.94;;;16.09;42.26
59272;BME280;45043;51.068;7.026;2022-07-29T06:20:54;100376.59;;;16.21;42.71
59272;BME280;45043;51.068;7.026;2022-07-29T06:23:55;100382.34;;;16.36;42.55
59272;BME280;45043;51.068;7.026;2022-07-29T06:26:58;100383.66;;;16.50;42.08
59272;BME280;45043;51.068;7.026;2022-07-29T06:29:58;100393.56;;;16.62;41.94
59272;BME280;45043;51.068;7.026;2022-07-29T06:32:59;100390.59;;;16.75;41.62
59272;BME280;45043;51.068;7.026;2022-07-29T06:36:04;100397.03;;;16.91;41.40
59272;BME280;45043;51.068;7.026;2022-07-29T06:39:06;100393.16;;;16.98;41.06
59272;BME280;45043;51.068;7.026;2022-07-29T06:42:07;100395.47;;;17.07;40.84
59272;BME280;45043;51.068;7.026;2022-07-29T06:45:15;100385.75;;;17.06;40.71
59272;BME280;45043;51.068;7.026;2022-07-29T06:48:19;100400.88;;;17.23;41.09
59272;BME280;45043;51.068;7.026;2022-07-29T06:51:20;100411.78;;;17.34;41.20
59272;BME280;45043;51.068;7.026;2022-07-29T06:54:24;100402.25;;;17.43;40.70
59272;BME280;45043;51.068;7.026;2022-07-29T06:57:24;100404.78;;;17.50;40.46
59272;BME280;45043;51.068;7.026;2022-07-29T07:00:27;100415.13;;;17.58;40.27
59272;BME280;45043;51.068;7.026;2022-07-29T07:03:37;100408.72;;;17.59;39.64
59272;BME280;45043;51.068;7.026;2022-07-29T07:06:38;100405.78;;;17.60;40.61
59272;BME280;45043;51.068;7.026;2022-07-29T07:09:38;100394.06;;;17.50;39.72
59272;BME280;45043;51.068;7.026;2022-07-29T07:12:44;100403.66;;;17.45;39.88
59272;BME280;45043;51.068;7.026;2022-07-29T07:15:48;100400.25;;;17.33;40.33
59272;BME280;45043;51.068;7.026;2022-07-29T07:18:48;100391.44;;;17.21;40.56
59272;BME280;45043;51.068;7.026;2022-07-29T07:21:49;100399.59;;;17.26;41.19
59272;BME280;45043;51.068;7.026;2022-07-29T07:24:49;100398.44;;;17.22;41.79
59272;BME280;45043;51.068;7.026;2022-07-29T07:27:50;100395.97;;;17.20;41.44
59272;BME280;45043;51.068;7.026;2022-07-29T07:30:51;100398.84;;;17.14;41.46
59272;BME280;45043;51.068;7.026;2022-07-29T07:33:54;100397.09;;;17.08;41.37
59272;BME280;45043;51.068;7.026;2022-07-29T07:36:58;100397.66;;;17.10;41.89
59272;BME280;45043;51.068;7.026;2022-07-29T07:40:02;100403.34;;;17.13;42.48
59272;BME280;45043;51.068;7.026;2022-07-29T07:43:03;100391.00;;;17.12;42.51
59272;BME280;45043;51.068;7.026;2022-07-29T07:46:04;100408.38;;;17.21;43.17
59272;BME280;45043;51.068;7.026;2022-07-29T07:49:07;100403.16;;;17.32;43.48
59272;BME280;45043;51.068;7.026;2022-07-29T07:52:07;100413.41;;;17.35;42.98
59272;BME280;45043;51.068;7.026;2022-07-29T07:55:08;100405.63;;;17.33;43.26
59272;BME280;45043;51.068;7.026;2022-07-29T07:58:09;100394.03;;;17.16;42.99
59272;BME280;45043;51.068;7.026;2022-07-29T08:01:13;100386.41;;;16.96;43.48
59272;BME280;45043;51.068;7.026;2022-07-29T08:04:13;100393.88;;;16.94;44.97
59272;BME280;45043;51.068;7.026;2022-07-29T08:07:17;100400.38;;;16.81;44.39
59272;BME280;45043;51.068;7.026;2022-07-29T08:10:18;100401.31;;;16.75;45.17
59272;BME280;45043;51.068;7.026;2022-07-29T08:13:38;100404.69;;;16.82;45.75
59272;BME280;45043;51.068;7.026;2022-07-29T08:16:41;100403.22;;;16.91;45.41
59272;BME280;45043;51.068;7.026;2022-07-29T08:19:50;100395.28;;;16.96;45.26
59272;BME280;45043;51.068;7.026;2022-07-29T08:22:55;100386.09;;;16.92;45.91
59272;BME280;45043;51.068;7.026;2022-07-29T08:25:55;100395.09;;;16.86;45.95
59272;BME280;45043;51.068;7.026;2022-07-29T08:28:56;100399.78;;;16.79;46.18
59272;BME280;45043;51.068;7.026;2022-07-29T08:31:56;100403.88;;;16.82;47.16
59272;BME280;45043;51.068;7.026;2022-07-29T08:34:57;100408.28;;;16.88;46.61
59272;BME280;45043;51.068;7.026;2022-07-29T08:37:58;100399.50;;;16.92;46.82
59272;BME280;45043;51.068;7.026;2022-07-29T08:41:00;100396.81;;;16.92;47.15
59272;BME280;45043;51.068;7.026;2022-07-29T08:44:01;100394.53;;;16.84;47.56
59272;BME280;45043;51.068;7.026;2022-07-29T08:47:01;100393.34;;;16.80;47.25
59272;BME280;45043;51.068;7.026;2022-07-29T08:50:02;100388.72;;;16.75;48.26
59272;BME280;45043;51.068;7.026;2022-07-29T08:53:03;100393.56;;;16.62;48.79
59272;BME280;45043;51.068;7.026;2022-07-29T08:56:05;100389.97;;;16.56;49.31
59272;BME280;45043;51.068;7.026;2022-07-29T08:59:08;100385.88;;;16.54;50.11
59272;BME280;45043;51.068;7.026;2022-07-29T09:02:21;100383.22;;;16.42;49.61
59272;BME280;45043;51.068;7.026;2022-07-29T09:05:23;100377.66;;;16.43;49.36
59272;BME280;45043;51.068;7.026;2022-07-29T09:08:25;100376.25;;;16.41;49.72
59272;BME280;45043;51.068;7.026;2022-07-29T09:11:26;100374.97;;;16.43;49.60
59272;BME280;45043;51.068;7.026;2022-07-29T09:14:27;100374.34;;;16.53;49.75
59272;BME280;45043;51.068;7.026;2022-07-29T09:17:44;100379.44;;;16.66;50.15
59272;BME280;45043;51.068;7.026;2022-07-29T09:20:51;100391.84;;;16.84;50.06
59272;BME280;45043;51.068;7.026;2022-07-29T09:24:13;100390.81;;;17.02;49.68
59272;BME280;45043;51.068;7.026;2022-07-29T09:30:17;100387.63;;;17.34;49.05
59272;BME280;45043;51.068;7.026;2022-07-29T09:33:18;100380.78;;;17.43;48.96
59272;BME280;45043;51.068;7.026;2022-07-29T09:36:18;100388.69;;;17.50;49.61
59272;BME280;45043;51.068;7.026;2022-07-29T09:42:29;100383.72;;;17.58;49.10
59272;BME280;45043;51.068;7.026;2022-07-29T09:45:32;100390.47;;;17.61;49.07
59272;BME280;45043;51.068;7.026;2022-07-29T09:48:33;100393.41;;;17.59;49.19
59272;BME280;45043;51.068;7.026;2022-07-29T09:51:33;100387.06;;;17.49;48.67
59272;BME280;45043;51.068;7.026;2022-07-29T09:54:34;100389.81;;;17.54;48.49
59272;BME280;45043;51.068;7.026;2022-07-29T09:57:38;100388.69;;;17.50;48.36
59272;BME280;45043;51.068;7.026;2022-07-29T10:00:42;100384.31;;;17.43;48.88
59272;BME280;45043;51.068;7.026;2022-07-29T10:03:52;100383.72;;;17.41;48.55
59272;BME280;45043;51.068;7.026;2022-07-29T10:07:00;100385.34;;;17.42;48.45
59272;BME280;45043;51.068;7.026;2022-07-29T10:10:01;100382.91;;;17.41;48.52
59272;BME280;45043;51.068;7.026;2022-07-29T10:16:08;100400.97;;;17.62;48.31
59272;BME280;45043;51.068;7.026;2022-07-29T10:19:09;100406.25;;;17.74;48.57
59272;BME280;45043;51.068;7.026;2022-07-29T10:22:10;100405.78;;;17.77;47.94
59272;BME280;45043;51.068;7.026;2022-07-29T10:25:15;100403.81;;;17.89;47.53
59272;BME280;45043;51.068;7.026;2022-07-29T10:28:16;100398.78;;;17.93;47.24
59272;BME280;45043;51.068;7.026;2022-07-29T10:31:28;100391.03;;;17.97;47.27
59272;BME280;45043;51.068;7.026;2022-07-29T10:41:37;100399.59;;;17.93;48.43
59272;BME280;45043;51.068;7.026;2022-07-29T10:44:46;100407.72;;;17.99;48.83
59272;BME280;45043;51.068;7.026;2022-07-29T10:47:46;100405.59;;;18.01;48.29
59272;BME280;45043;51.068;7.026;2022-07-29T10:51:00;100403.88;;;17.94;49.17
59272;BME280;45043;51.068;7.026;2022-07-29T10:54:00;100409.97;;;17.90;48.68
59272;BME280;45043;51.068;7.026;2022-07-29T10:57:24;100404.22;;;17.81;48.61
59272;BME280;45043;51.068;7.026;2022-07-29T11:00:29;100413.91;;;17.82;47.83
59272;BME280;45043;51.068;7.026;2022-07-29T11:03:46;100405.78;;;17.77;48.40
59272;BME280;45043;51.068;7.026;2022-07-29T11:13:52;100410.00;;;18.07;47.97
59272;BME280;45043;51.068;7.026;2022-07-29T11:17:05;100407.19;;;18.18;47.53
59272;BME280;45043;51.068;7.026;2022-07-29T11:23:33;100390.56;;;18.43;47.05
59272;BME280;45043;51.068;7.026;2022-07-29T11:26:38;100398.06;;;18.63;46.32
59272;BME280;45043;51.068;7.026;2022-07-29T11:29:50;100394.25;;;18.81;45.59
59272;BME280;45043;51.068;7.026;2022-07-29T11:32:51;100402.38;;;18.86;45.30
59272;BME280;45043;51.068;7.026;2022-07-29T11:36:12;100401.16;;;18.99;44.67
59272;BME280;45043;51.068;7.026;2022-07-29T11:39:25;100387.03;;;19.14;44.05
59272;BME280;45043;51.068;7.026;2022-07-29T11:45:45;100393.22;;;19.42;43.51
59272;BME280;45043;51.068;7.026;2022-07-29T11:48:46;100393.28;;;19.52;42.08
59272;BME280;45043;51.068;7.026;2022-07-29T11:51:55;100393.88;;;19.59;41.88
59272;BME280;45043;51.068;7.026;2022-07-29T11:54:57;100391.22;;;19.64;41.71
59272;BME280;45043;51.068;7.026;2022-07-29T11:57:59;100391.25;;;19.69;41.02
59272;BME280;45043;51.068;7.026;2022-07-29T12:01:01;100394.22;;;19.73;41.14
59272;BME280;45043;51.068;7.026;2022-07-29T12:04:05;100386.78;;;19.85;40.61
59272;BME280;45043;51.068;7.026;2022-07-29T12:07:06;100394.66;;;19.97;40.68
59272;BME280;45043;51.068;7.026;2022-07-29T12:10:07;100400.88;;;19.97;40.04
59272;BME280;45043;51.068;7.026;2022-07-29T12:13:08;100398.47;;;20.06;39.53
59272;BME280;45043;51.068;7.026;2022-07-29T12:16:09;100401.25;;;20.16;39.09
59272;BME280;45043;51.068;7.026;2022-07-29T12:19:10;100398.28;;;20.18;39.08
59272;BME280;45043;51.068;7.026;2022-07-29T12:22:10;100390.25;;;20.28;39.02
59272;BME280;45043;51.068;7.026;2022-07-29T12:25:13;100394.91;;;20.43;39.40
59272;BME280;45043;51.068;7.026;2022-07-29T12:28:18;100396.50;;;20.44;38.51
59272;BME280;45043;51.068;7.026;2022-07-29T12:31:19;100407.34;;;20.49;38.62
59272;BME280;45043;51.068;7.026;2022-07-29T12:34:22;100394.38;;;20.46;39.06
59272;BME280;45043;51.068;7.026;2022-07-29T12:37:24;100390.34;;;20.48;38.65
59272;BME280;45043;51.068;7.026;2022-07-29T12:40:25;100387.66;;;20.58;37.58
59272;BME280;45043;51.068;7.026;2022-07-29T12:43:26;100392.56;;;20.67;37.04
59272;BME280;45043;51.068;7.026;2022-07-29T12:46:26;100387.97;;;20.67;37.62
59272;BME280;45043;51.068;7.026;2022-07-29T12:49:27;100393.38;;;20.67;38.06
59272;BME280;45043;51.068;7.026;2022-07-29T12:52:32;100377.69;;;20.64;37.95
59272;BME280;45043;51.068;7.026;2022-07-29T12:55:43;100393.41;;;20.77;37.88
59272;BME280;45043;51.068;7.026;2022-07-29T12:58:48;100384.56;;;20.92;37.62
59272;BME280;45043;51.068;7.026;2022-07-29T13:01:51;100396.69;;;21.10;37.58
59272;BME280;45043;51.068;7.026;2022-07-29T13:04:59;100370.53;;;21.16;37.73
59272;BME280;45043;51.068;7.026;2022-07-29T13:08:10;100367.53;;;21.17;38.04
59272;BME280;45043;51.068;7.026;2022-07-29T13:11:30;100372.41;;;21.15;37.65
59272;BME280;45043;51.068;7.026;2022-07-29T13:14:41;100388.63;;;21.15;37.98
59272;BME280;45043;51.068;7.026;2022-07-29T13:17:43;100384.53;;;21.02;37.67
59272;BME280;45043;51.068;7.026;2022-07-29T13:20:44;100390.78;;;21.08;37.50
59272;BME280;45043;51.068;7.026;2022-07-29T13:23:44;100377.28;;;21.18;37.29
59272;BME280;45043;51.068;7.026;2022-07-29T13:26:45;100379.72;;;21.30;36.44
59272;BME280;45043;51.068;7.026;2022-07-29T13:29:46;100373.47;;;21.35;35.91
59272;BME280;45043;51.068;7.026;2022-07-29T13:32:47;100377.53;;;21.42;35.90
59272;BME280;45043;51.068;7.026;2022-07-29T13:35:47;100381.09;;;21.48;35.57
59272;BME280;45043;51.068;7.026;2022-07-29T13:38:48;100376.75;;;21.52;35.53
59272;BME280;45043;51.068;7.026;2022-07-29T13:41:48;100385.38;;;21.54;35.40
59272;BME280;45043;51.068;7.026;2022-07-29T13:44:49;100374.56;;;21.54;35.50
59272;BME280;45043;51.068;7.026;2022-07-29T13:47:51;100378.09;;;21.49;35.88
59272;BME280;45043;51.068;7.026;2022-07-29T13:50:52;100383.75;;;21.58;35.19
59272;BME280;45043;51.068;7.026;2022-07-29T13:53:52;100381.84;;;21.59;34.55
59272;BME280;45043;51.068;7.026;2022-07-29T13:56:52;100381.34;;;21.57;35.01
59272;BME280;45043;51.068;7.026;2022-07-29T13:59:54;100371.31;;;21.62;35.23
59272;BME280;45043;51.068;7.026;2022-07-29T14:02:54;100366.16;;;21.66;35.54
59272;BME280;45043;51.068;7.026;2022-07-29T14:05:55;100362.09;;;21.73;34.95
59272;BME280;45043;51.068;7.026;2022-07-29T14:08:56;100374.28;;;21.81;34.84
59272;BME280;45043;51.068;7.026;2022-07-29T14:11:57;100375.06;;;21.76;35.21
59272;BME280;45043;51.068;7.026;2022-07-29T14:14:57;100369.66;;;21.76;34.94
59272;BME280;45043;51.068;7.026;2022-07-29T14:17:58;100375.63;;;21.78;35.08
59272;BME280;45043;51.068;7.026;2022-07-29T14:20:58;100374.00;;;21.83;34.69
59272;BME280;45043;51.068;7.026;2022-07-29T14:23:59;100359.13;;;21.80;35.07
59272;BME280;45043;51.068;7.026;2022-07-29T14:26:59;100369.63;;;21.92;34.61
59272;BME280;45043;51.068;7.026;2022-07-29T14:29:59;100370.16;;;21.99;34.92
59272;BME280;45043;51.068;7.026;2022-07-29T14:33:00;100379.34;;;22.08;34.84
59272;BME280;45043;51.068;7.026;2022-07-29T14:36:00;100375.53;;;22.19;34.17
59272;BME280;45043;51.068;7.026;2022-07-29T14:39:01;100374.97;;;22.22;33.65
59272;BME280;45043;51.068;7.026;2022-07-29T14:42:01;100378.75;;;22.26;33.52
59272;BME280;45043;51.068;7.026;2022-07-29T14:45:04;100381.41;;;22.37;33.49
59272;BME280;45043;51.068;7.026;2022-07-29T14:48:05;100375.44;;;22.40;33.49
59272;BME280;45043;51.068;7.026;2022-07-29T14:51:06;100382.50;;;22.36;33.58
59272;BME280;45043;51.068;7.026;2022-07-29T14:54:06;100382.78;;;22.34;34.07
59272;BME280;45043;51.068;7.026;2022-07-29T14:57:07;100387.34;;;22.39;33.40
59272;BME280;45043;51.068;7.026;2022-07-29T15:00:10;100387.94;;;22.31;33.85
59272;BME280;45043;51.068;7.026;2022-07-29T15:03:11;100375.50;;;22.30;33.34
59272;BME280;45043;51.068;7.026;2022-07-29T15:06:12;100393.06;;;22.37;33.82
59272;BME280;45043;51.068;7.026;2022-07-29T15:09:13;100396.56;;;22.33;33.21
59272;BME280;45043;51.068;7.026;2022-07-29T15:12:13;100408.53;;;22.26;32.69
59272;BME280;45043;51.068;7.026;2022-07-29T15:15:14;100385.25;;;22.25;32.98
59272;BME280;45043;51.068;7.026;2022-07-29T15:18:14;100374.44;;;22.25;33.42
59272;BME280;45043;51.068;7.026;2022-07-29T15:21:15;100408.50;;;22.32;33.70
59272;BME280;45043;51.068;7.026;2022-07-29T15:24:17;100408.81;;;22.20;33.24
59272;BME280;45043;51.068;7.026;2022-07-29T15:27:18;100388.81;;;22.16;33.50
59272;BME280;45043;51.068;7.026;2022-07-29T15:30:19;100385.53;;;22.19;33.26
59272;BME280;45043;51.068;7.026;2022-07-29T15:33:19;100380.41;;;22.22;32.85
59272;BME280;45043;51.068;7.026;2022-07-29T15:36:20;100406.06;;;22.25;32.02
59272;BME280;45043;51.068;7.026;2022-07-29T15:39:21;100398.28;;;22.18;32.18
59272;BME280;45043;51.068;7.026;2022-07-29T15:42:22;100384.72;;;22.23;32.29
59272;BME280;45043;51.068;7.026;2022-07-29T15:45:22;100389.31;;;22.18;33.16
59272;BME280;45043;51.068;7.026;2022-07-29T15:48:23;100398.78;;;22.10;32.75
59272;BME280;45043;51.068;7.026;2022-07-29T15:51:23;100386.94;;;21.91;33.53
59272;BME280;45043;51.068;7.026;2022-07-29T15:54:24;100396.72;;;21.82;33.52
59272;BME280;45043;51.068;7.026;2022-07-29T15:57:24;100394.03;;;21.71;33.24
59272;BME280;45043;51.068;7.026;2022-07-29T16:00:25;100390.78;;;21.74;33.56
59272;BME280;45043;51.068;7.026;2022-07-29T16:03:25;100390.25;;;21.77;33.74
59272;BME280;45043;51.068;7.026;2022-07-29T16:06:26;100400.47;;;21.81;34.10
59272;BME280;45043;51.068;7.026;2022-07-29T16:09:26;100384.81;;;21.83;33.96
59272;BME280;45043;51.068;7.026;2022-07-29T16:12:27;100390.78;;;21.85;34.26
59272;BME280;45043;51.068;7.026;2022-07-29T16:15:28;100376.66;;;21.88;33.87
59272;BME280;45043;51.068;7.026;2022-07-29T16:18:28;100380.44;;;21.92;33.92
59272;BME280;45043;51.068;7.026;2022-07-29T16:21:32;100378.03;;;21.90;34.13
59272;BME280;45043;51.068;7.026;2022-07-29T16:24:34;100379.63;;;21.91;34.19
59272;BME280;45043;51.068;7.026;2022-07-29T16:27:34;100391.84;;;21.89;34.13
59272;BME280;45043;51.068;7.026;2022-07-29T16:30:35;100388.31;;;21.83;34.63
59272;BME280;45043;51.068;7.026;2022-07-29T16:33:36;100373.16;;;21.87;34.31
59272;BME280;45043;51.068;7.026;2022-07-29T16:36:36;100392.38;;;21.86;34.15
59272;BME280;45043;51.068;7.026;2022-07-29T16:39:36;100390.22;;;21.83;34.35
59272;BME280;45043;51.068;7.026;2022-07-29T16:42:37;100390.25;;;21.77;33.84
59272;BME280;45043;51.068;7.026;2022-07-29T16:45:38;100395.66;;;21.77;33.59